createdAt,value
2019-04-26T00:00:18.065Z,53.83
2019-04-26T00:02:45.299Z,51.60
2019-04-26T00:05:12.324Z,49.43
2019-04-26T00:07:39.518Z,50.97
2019-04-26T00:10:06.469Z,37.33
2019-04-26T00:12:33.510Z,54.60
2019-04-26T00:15:00.693Z,47.57
2019-04-26T00:17:27.937Z,50.53
2019-04-26T00:19:55.190Z,45.23
2019-04-26T00:22:22.358Z,45.87
2019-04-26T00:24:49.485Z,70.30
2019-04-26T00:27:16.930Z,40.97
2019-04-26T00:29:43.935Z,50.37
2019-04-26T00:32:12.151Z,35.63
2019-04-26T00:34:39.470Z,47.17
2019-04-26T00:37:06.344Z,51.37
2019-04-26T00:39:33.273Z,57.60
2019-04-26T00:42:00.426Z,37.63
2019-04-26T00:44:27.492Z,37.47
2019-04-26T00:46:54.520Z,56.13
2019-04-26T00:49:21.541Z,45.00
2019-04-26T00:51:48.417Z,43.63
2019-04-26T00:54:15.584Z,42.10
2019-04-26T00:56:42.532Z,47.30
2019-04-26T00:59:09.423Z,43.60
2019-04-26T01:01:36.705Z,47.23
2019-04-26T01:04:04.026Z,39.00
2019-04-26T01:06:31.264Z,54.07
2019-04-26T01:08:58.254Z,52.00
2019-04-26T01:11:25.985Z,38.87
2019-04-26T01:13:52.972Z,45.10
2019-04-26T01:16:20.210Z,37.13
2019-04-26T01:18:47.571Z,44.73
2019-04-26T01:21:14.459Z,47.90
2019-04-26T01:23:41.567Z,59.20
2019-04-26T01:26:08.508Z,35.63
2019-04-26T01:28:35.342Z,59.53
2019-04-26T01:31:02.114Z,66.33
2019-04-26T01:33:28.837Z,34.30
2019-04-26T01:35:55.560Z,75.20
2019-04-26T01:38:23.674Z,48.90
2019-04-26T01:40:50.695Z,37.73
2019-04-26T01:43:17.585Z,42.13
2019-04-26T01:45:44.333Z,41.33
2019-04-26T01:48:11.174Z,39.17
2019-04-26T01:50:38.018Z,55.33
2019-04-26T01:53:04.865Z,57.27
2019-04-26T01:55:31.717Z,38.50
2019-04-26T01:57:58.543Z,45.40
2019-04-26T02:00:25.618Z,43.20
2019-04-26T02:02:52.642Z,38.47
2019-04-26T02:05:19.915Z,55.43
2019-04-26T02:07:46.986Z,45.17
2019-04-26T02:10:13.966Z,41.03
2019-04-26T02:12:40.918Z,73.50
2019-04-26T02:15:08.073Z,67.43
2019-04-26T02:17:35.043Z,51.10
2019-04-26T02:20:02.061Z,61.43
2019-04-26T02:22:29.903Z,53.83
2019-04-26T02:24:56.862Z,47.27
2019-04-26T02:27:24.720Z,34.80
2019-04-26T02:29:52.293Z,49.00
2019-04-26T02:32:19.055Z,43.97
2019-04-26T02:34:45.744Z,34.10
2019-04-26T02:37:12.629Z,50.87
2019-04-26T02:39:39.455Z,58.00
2019-04-26T02:42:06.215Z,43.93
2019-04-26T02:44:34.590Z,60.67
2019-04-26T02:47:01.366Z,42.50
2019-04-26T02:49:29.308Z,65.13
2019-04-26T02:51:57.636Z,64.90
2019-04-26T02:54:24.366Z,54.90
2019-04-26T02:56:51.093Z,53.13
2019-04-26T02:59:17.885Z,41.53
2019-04-26T03:01:44.628Z,55.37
2019-04-26T03:04:11.364Z,68.40
2019-04-26T03:06:40.360Z,95.77
2019-04-26T03:09:07.141Z,72.33
2019-04-26T03:11:35.105Z,70.90
2019-04-26T03:14:02.004Z,57.87
2019-04-26T03:16:29.280Z,52.80
2019-04-26T03:18:56.201Z,93.07
2019-04-26T03:21:23.036Z,77.63
2019-04-26T03:23:57.540Z,60.97
2019-04-26T03:26:18.157Z,41.67
2019-04-26T03:28:45.063Z,70.47
2019-04-26T03:31:11.856Z,82.27
2019-04-26T03:33:46.640Z,63.17
2019-04-26T03:36:07.147Z,58.40
2019-04-26T03:38:34.474Z,70.90
2019-04-26T03:41:02.377Z,37.50
2019-04-26T03:43:29.218Z,72.93
2019-04-26T03:45:56.063Z,68.43
2019-04-26T03:48:22.835Z,52.97
2019-04-26T03:50:49.644Z,72.23
2019-04-26T03:53:16.601Z,107.30
2019-04-26T03:55:44.087Z,65.53
2019-04-26T03:58:11.756Z,37.57
2019-04-26T04:00:39.323Z,47.20
2019-04-26T04:03:07.521Z,70.13
2019-04-26T04:05:35.944Z,66.00
2019-04-26T04:08:02.759Z,60.67
2019-04-26T04:10:29.600Z,51.60
2019-04-26T04:12:56.474Z,45.53
2019-04-26T04:15:23.440Z,57.70
2019-04-26T04:17:50.444Z,52.30
2019-04-26T04:20:17.473Z,64.87
2019-04-26T04:22:45.847Z,55.57
2019-04-26T04:25:12.698Z,52.80
2019-04-26T04:27:41.150Z,50.10
2019-04-26T04:30:08.026Z,66.80
2019-04-26T04:32:34.861Z,74.57
2019-04-26T04:35:06.148Z,70.17
2019-04-26T04:37:30.270Z,58.53
2019-04-26T04:39:57.150Z,42.43
2019-04-26T04:42:23.940Z,41.97
2019-04-26T04:44:51.993Z,48.70
2019-04-26T04:47:24.520Z,50.40
2019-04-26T04:49:48.935Z,61.23
2019-04-26T04:52:15.632Z,43.83
2019-04-26T04:54:43.250Z,59.83
2019-04-26T04:57:10.954Z,58.13
2019-04-26T04:59:37.803Z,67.10
2019-04-26T05:02:04.638Z,51.97
2019-04-26T05:04:31.481Z,65.50
2019-04-26T05:06:58.325Z,55.93
2019-04-26T05:09:25.163Z,63.47
2019-04-26T05:11:52.068Z,50.03
2019-04-26T05:14:19.048Z,56.73
2019-04-26T05:16:46.538Z,61.03
2019-04-26T05:19:13.655Z,55.80
2019-04-26T05:21:40.518Z,45.70
2019-04-26T05:24:07.236Z,61.47
2019-04-26T05:26:34.343Z,69.80
2019-04-26T05:29:01.124Z,58.60
2019-04-26T05:31:28.069Z,66.83
2019-04-26T05:33:55.129Z,54.57
2019-04-26T05:36:21.957Z,58.67
2019-04-26T05:38:49.329Z,62.73
2019-04-26T05:41:16.377Z,47.53
2019-04-26T05:43:43.106Z,52.67
2019-04-26T05:46:09.950Z,52.97
2019-04-26T05:48:36.882Z,51.87
2019-04-26T05:51:03.724Z,38.90
2019-04-26T05:53:30.563Z,61.37
2019-04-26T05:55:58.048Z,44.40
2019-04-26T05:58:24.971Z,41.57
2019-04-26T06:00:52.134Z,55.93
2019-04-26T06:03:18.955Z,49.60
2019-04-26T06:05:45.795Z,53.83
2019-04-26T06:08:12.544Z,39.23
2019-04-26T06:10:39.686Z,51.33
2019-04-26T06:13:06.526Z,69.80
2019-04-26T06:15:33.392Z,49.83
2019-04-26T06:18:00.166Z,51.48
2019-04-26T06:20:26.988Z,54.27
2019-04-26T06:22:56.368Z,31.97
2019-04-26T06:25:22.374Z,41.40
2019-04-26T06:27:49.215Z,34.53
2019-04-26T06:30:16.060Z,40.12
2019-04-26T06:32:55.980Z,38.05
2019-04-26T06:35:11.378Z,39.95
2019-04-26T06:37:38.105Z,46.53
2019-04-26T06:40:04.959Z,39.53
2019-04-26T06:42:31.801Z,34.60
2019-04-26T06:44:58.645Z,35.38
2019-04-26T06:47:25.484Z,33.08
2019-04-26T06:49:52.329Z,36.70
2019-04-26T06:52:19.174Z,30.62
2019-04-26T06:54:46.011Z,31.37
2019-04-26T06:57:15.217Z,23.30
2019-04-26T06:59:41.230Z,30.05
2019-04-26T07:02:08.234Z,36.70
2019-04-26T07:04:35.118Z,21.85
2019-04-26T07:07:02.663Z,24.72
2019-04-26T07:09:29.518Z,26.33
2019-04-26T07:11:56.355Z,19.62
2019-04-26T07:14:23.096Z,18.12
2019-04-26T07:16:49.889Z,28.45
2019-04-26T07:19:16.675Z,19.95
2019-04-26T07:21:43.415Z,32.50
2019-04-26T07:24:11.180Z,24.67
2019-04-26T07:26:37.893Z,31.50
2019-04-26T07:29:04.747Z,22.55
2019-04-26T07:31:31.654Z,37.73
2019-04-26T07:33:58.385Z,27.30
2019-04-26T07:36:25.185Z,19.65
2019-04-26T07:38:52.025Z,17.87
2019-04-26T07:41:18.867Z,18.70
2019-04-26T07:43:45.709Z,27.85
2019-04-26T07:46:12.713Z,29.10
2019-04-26T07:48:39.480Z,21.07
2019-04-26T07:51:06.507Z,26.45
2019-04-26T07:53:33.382Z,13.08
2019-04-26T07:56:00.124Z,15.72
2019-04-26T07:58:26.966Z,14.40
2019-04-26T08:00:53.804Z,16.27
2019-04-26T08:03:20.652Z,14.43
2019-04-26T08:05:47.498Z,18.57
2019-04-26T08:08:15.030Z,19.85
2019-04-26T08:10:41.760Z,21.75
2019-04-26T08:13:08.486Z,19.65
2019-04-26T08:15:35.371Z,15.60
2019-04-26T08:18:02.110Z,12.73
2019-04-26T08:20:31.919Z,16.73
2019-04-26T08:22:57.378Z,13.53
2019-04-26T08:25:24.172Z,17.92
2019-04-26T08:27:51.012Z,16.60
2019-04-26T08:30:19.176Z,23.55
2019-04-26T08:32:46.809Z,22.95
2019-04-26T08:35:18.303Z,16.42
2019-04-26T08:37:42.469Z,15.20
2019-04-26T08:40:09.311Z,16.48
2019-04-26T08:42:36.153Z,17.73
2019-04-26T08:45:04.401Z,15.95
2019-04-26T08:47:31.327Z,20.08
2019-04-26T08:49:58.114Z,15.88
2019-04-26T08:52:25.011Z,13.35
2019-04-26T08:54:51.796Z,16.67
2019-04-26T08:57:18.635Z,9.35
2019-04-26T08:59:45.837Z,20.35
2019-04-26T09:02:12.628Z,18.85
2019-04-26T09:04:39.471Z,15.48
2019-04-26T09:07:06.308Z,12.35
2019-04-26T09:09:33.154Z,12.15
2019-04-26T09:12:00.188Z,14.80
2019-04-26T09:14:27.040Z,13.62
2019-04-26T09:16:53.880Z,10.10
2019-04-26T09:19:20.730Z,13.30
2019-04-26T09:21:51.757Z,16.27
2019-04-26T09:24:16.056Z,9.90
2019-04-26T09:26:46.812Z,11.28
2019-04-26T09:29:11.467Z,11.35
2019-04-26T09:31:38.318Z,10.10
2019-04-26T09:34:06.373Z,5.65
2019-04-26T09:36:33.587Z,12.95
2019-04-26T09:39:03.883Z,10.70
2019-04-26T09:41:30.812Z,9.75
2019-04-26T09:43:58.939Z,9.80
2019-04-26T09:46:25.807Z,9.88
2019-04-26T09:48:52.529Z,10.85
2019-04-26T09:51:19.496Z,9.68
2019-04-26T09:53:46.333Z,12.75
2019-04-26T09:56:13.177Z,8.58
2019-04-26T09:58:40.025Z,9.60
2019-04-26T10:01:06.911Z,9.88
2019-04-26T10:03:34.425Z,10.25
2019-04-26T10:08:33.434Z,6.58
2019-04-26T10:11:00.269Z,13.88
2019-04-26T10:13:27.114Z,8.43
2019-04-26T10:15:53.948Z,6.75
2019-04-26T10:18:24.520Z,13.93
2019-04-26T10:20:49.117Z,13.30
2019-04-26T10:23:15.872Z,9.90
2019-04-26T10:25:42.555Z,11.12
2019-04-26T10:28:11.866Z,11.15
2019-04-26T10:30:38.370Z,16.15
2019-04-26T10:33:06.061Z,13.38
2019-04-26T10:35:32.842Z,10.53
2019-04-26T20:04:53.835Z,32.00
2019-04-26T20:07:24.218Z,38.83
2019-04-26T20:09:49.258Z,36.97
2019-04-26T20:12:16.083Z,40.93
2019-04-26T20:14:50.350Z,32.50
2019-04-26T20:17:13.175Z,23.13
2019-04-26T20:19:39.858Z,27.73
2019-04-26T20:22:06.627Z,30.13
2019-04-26T20:24:33.946Z,39.07
2019-04-26T20:27:03.140Z,31.17
2019-04-26T20:29:29.529Z,33.73
2019-04-26T20:31:56.378Z,33.77
2019-04-26T20:34:23.218Z,34.80
2019-04-26T20:36:50.007Z,25.33
2019-04-26T20:39:20.812Z,34.93
2019-04-26T20:41:45.252Z,36.13
2019-04-26T20:44:12.713Z,30.90
2019-04-26T20:46:39.750Z,28.23
2019-04-26T20:49:09.056Z,43.53
2019-04-26T20:51:34.928Z,36.83
2019-04-26T20:54:02.390Z,35.97
2019-04-26T20:56:31.733Z,30.00
2019-04-26T20:58:58.441Z,28.07
2019-04-26T21:01:25.162Z,25.90
2019-04-26T21:03:51.960Z,33.73
2019-04-26T21:06:18.735Z,25.77
2019-04-26T21:08:45.479Z,34.97
2019-04-26T21:11:13.703Z,35.03
2019-04-26T21:13:41.519Z,28.93
2019-04-26T21:16:10.775Z,37.87
2019-04-26T21:18:40.234Z,35.47
2019-04-26T21:21:06.056Z,38.13
2019-04-26T21:23:39.658Z,32.93
2019-04-26T21:26:02.927Z,30.63
2019-04-26T21:28:29.730Z,30.47
2019-04-26T21:30:56.462Z,43.83
2019-04-26T21:33:23.959Z,35.50
2019-04-26T21:35:52.899Z,34.70
2019-04-26T21:38:19.478Z,33.63
2019-04-26T21:40:46.291Z,38.10
2019-04-26T21:43:13.001Z,28.00
2019-04-26T21:45:39.727Z,29.30
2019-04-26T21:48:07.082Z,36.10
2019-04-26T21:50:38.693Z,38.80
2019-04-26T21:53:06.767Z,32.57
2019-04-26T21:55:37.292Z,25.97
2019-04-26T21:57:59.936Z,32.73
2019-04-26T22:00:26.676Z,30.97
2019-04-26T22:02:53.467Z,31.37
2019-04-26T22:05:20.190Z,29.90
2019-04-26T22:07:47.813Z,29.57
2019-04-26T22:10:14.601Z,31.17
2019-04-26T22:12:41.340Z,32.93
2019-04-26T22:15:08.095Z,31.07
2019-04-26T22:17:40.473Z,38.57
2019-04-26T22:20:06.933Z,23.97
2019-04-26T22:22:33.549Z,33.30
2019-04-26T22:25:00.527Z,30.30
2019-04-26T22:27:27.448Z,23.77
2019-04-26T22:29:55.104Z,33.07
2019-04-26T22:32:22.947Z,33.60
2019-04-26T22:34:49.872Z,33.53
2019-04-26T22:37:29.266Z,33.13
2019-04-26T22:39:45.421Z,21.60
2019-04-26T22:42:13.793Z,26.23
2019-04-26T22:44:40.624Z,34.33
2019-04-26T22:47:07.417Z,26.50
2019-04-26T22:49:34.957Z,31.37
2019-04-26T22:52:06.217Z,32.90
2019-04-26T22:54:30.973Z,26.77
2019-04-26T22:56:57.706Z,28.00
2019-04-26T22:59:24.433Z,27.27
2019-04-26T23:01:51.263Z,33.97
2019-04-26T23:04:23.653Z,23.53
2019-04-26T23:06:48.077Z,26.43
2019-04-26T23:09:17.087Z,30.23
2019-04-26T23:11:46.556Z,34.13
2019-04-26T23:14:17.741Z,27.70
2019-04-26T23:16:44.586Z,29.77
2019-04-26T23:19:09.295Z,24.90
2019-04-26T23:21:36.026Z,22.40
2019-04-26T23:24:03.773Z,21.97
2019-04-26T23:26:30.534Z,32.60
2019-04-26T23:28:57.278Z,40.77
2019-04-26T23:31:24.170Z,25.30
2019-04-26T23:33:51.279Z,33.30
2019-04-26T23:36:19.607Z,25.83
2019-04-26T23:38:46.956Z,27.90
2019-04-26T23:41:14.325Z,28.63
2019-04-26T23:43:41.306Z,30.90
2019-04-26T23:46:08.258Z,30.77
2019-04-26T23:48:35.190Z,31.03
2019-04-26T23:51:04.886Z,30.20
2019-04-26T23:53:30.641Z,28.63
2019-04-26T23:55:57.574Z,27.87
2019-04-26T23:58:24.427Z,22.23
